Terminal Aerodrome Forecast
Issued by NWS

Home | Current Version | Previous Version | Text Only | Print | Product List | Glossary On
Versions: 1 2 3 4 5 6 7 8 9 10 11 12 13 14 15 16 17 18 19 20 21
000
FTUS43 KDLH 182300
TAFHIB
TAF
KHIB 182328Z 1900/1924 00000KT P6SM OVC010
     FM190500 16004KT P6SM OVC070
     FM191200 16004KT 6SM BR OVC013
     FM191700 17005KT P6SM OVC012=

USA.gov is the U.S. government's official web portal to all federal, state and local government web resources and services.